Time;durP1;ratioP1;P1;durP2;ratioP2;P2;SDS_P1;SDS_P2;PMS_P1;PMS_P2;Temp;Humidity;BMP_temperature;BMP_pressure;BME280_temperature;BME280_humidity;BME280_pressure;Samples;Min_cycle;Max_cycle;Signal;HPM_P1;HPM_P2
2022/05/07 00:02:12;;;;;;;11.70;1.67;;;10.60;99.90;;;;;;5053986;28;20682;-86
2022/05/07 00:04:38;;;;;;;0.70;0.70;;;10.60;99.90;;;;;;5055300;28;20208;-84
2022/05/07 00:07:05;;;;;;;1.00;0.95;;;10.70;99.90;;;;;;5035866;28;20202;-86
2022/05/07 00:09:31;;;;;;;0.88;0.88;;;10.70;99.90;;;;;;5035728;28;20194;-84
2022/05/07 00:11:58;;;;;;;0.68;0.68;;;10.60;99.90;;;;;;5035635;28;20186;-85
2022/05/07 00:14:24;;;;;;;3.83;1.60;;;10.60;99.90;;;;;;5034529;28;20596;-85
2022/05/07 00:19:34;;;;;;;0.70;0.70;;;10.50;99.90;;;;;;5043764;28;20288;-85
2022/05/07 00:22:00;;;;;;;0.93;0.93;;;10.50;99.90;;;;;;5055600;28;20655;-86
2022/05/07 00:24:26;;;;;;;0.60;0.60;;;10.50;99.90;;;;;;5070468;28;20690;-86
2022/05/07 00:26:52;;;;;;;0.60;0.60;;;10.50;99.90;;;;;;5055520;28;20189;-85
2022/05/07 00:29:18;;;;;;;0.60;0.60;;;10.50;99.90;;;;;;5055376;28;20193;-85
2022/05/07 00:31:44;;;;;;;0.65;0.65;;;10.50;99.90;;;;;;5055454;28;20217;-85
2022/05/07 00:34:10;;;;;;;1.13;1.13;;;10.50;99.90;;;;;;5055311;28;20182;-85
2022/05/07 00:36:36;;;;;;;0.88;0.88;;;10.50;99.90;;;;;;5055213;28;20190;-86
2022/05/07 00:39:02;;;;;;;0.50;0.50;;;10.50;99.90;;;;;;5054372;28;20569;-86
2022/05/07 00:41:28;;;;;;;0.80;0.80;;;10.50;99.90;;;;;;5053594;28;20201;-86
2022/05/07 00:43:54;;;;;;;1.80;1.65;;;10.40;99.90;;;;;;5070464;28;20201;-86
2022/05/07 00:46:24;;;;;;;0.60;0.60;;;10.40;99.90;;;;;;5053736;28;20209;-86
2022/05/07 00:48:50;;;;;;;0.50;0.50;;;10.40;99.90;;;;;;5053666;28;20240;-87
2022/05/07 00:51:35;;;;;;;1.00;0.98;;;10.40;99.90;;;;;;5054754;28;20727;-87
2022/05/07 00:54:05;;;;;;;0.50;0.50;;;10.40;99.90;;;;;;5054967;28;20196;-86
2022/05/07 00:56:32;;;;;;;0.60;0.60;;;10.40;99.90;;;;;;5053070;28;20660;-86
2022/05/07 00:58:58;;;;;;;5.47;1.67;;;10.30;99.90;;;;;;5054504;28;20196;-86
2022/05/07 01:01:25;;;;;;;1.20;0.98;;;10.40;99.90;;;;;;5052904;28;20568;-85
2022/05/07 01:03:52;;;;;;;0.70;0.70;;;10.40;99.90;;;;;;5054659;28;20192;-85
2022/05/07 01:06:18;;;;;;;0.60;0.60;;;10.40;99.90;;;;;;5054559;28;20706;-82
2022/05/07 01:08:47;;;;;;;0.50;0.50;;;10.30;99.90;;;;;;5054638;28;20206;-85
2022/05/07 01:11:12;;;;;;;1.15;1.05;;;10.30;99.90;;;;;;5053606;28;20198;-84
2022/05/07 01:13:39;;;;;;;0.65;0.65;;;10.30;99.90;;;;;;5052323;28;20321;-85
2022/05/07 01:16:05;;;;;;;0.93;0.93;;;10.30;99.90;;;;;;5069527;28;20197;-85
2022/05/07 01:18:31;;;;;;;0.98;0.98;;;10.30;99.90;;;;;;5053106;28;20560;-85
2022/05/07 01:20:58;;;;;;;0.82;0.82;;;10.20;99.90;;;;;;5052889;28;20225;-86
2022/05/07 01:23:26;;;;;;;4.13;1.50;;;10.20;99.90;;;;;;5052489;28;20205;-85
2022/05/07 01:25:57;;;;;;;0.60;0.60;;;10.10;99.90;;;;;;5053019;28;20679;-85
2022/05/07 01:28:23;;;;;;;0.60;0.60;;;10.10;99.90;;;;;;5054046;28;20227;-84
2022/05/07 01:30:49;;;;;;;1.25;1.15;;;10.00;99.90;;;;;;5052692;28;20288;-85
2022/05/07 01:33:14;;;;;;;0.60;0.60;;;10.00;99.90;;;;;;5053635;28;20198;-85
2022/05/07 01:35:40;;;;;;;1.65;0.82;;;10.00;99.90;;;;;;5053622;28;20616;-85
2022/05/07 01:38:06;;;;;;;0.70;0.70;;;10.00;99.90;;;;;;5052855;28;20202;-85
2022/05/07 01:40:31;;;;;;;0.70;0.70;;;10.00;99.90;;;;;;5053562;28;20674;-85
2022/05/07 01:42:57;;;;;;;0.60;0.60;;;10.00;99.90;;;;;;5053981;28;20205;-86
2022/05/07 01:45:23;;;;;;;0.60;0.60;;;10.00;99.90;;;;;;5053823;28;20202;-83
2022/05/07 01:50:33;;;;;;;0.50;0.50;;;9.90;99.90;;;;;;5053669;28;20247;-84
2022/05/07 01:52:58;;;;;;;0.70;0.70;;;9.90;99.90;;;;;;5052498;28;20193;-85
2022/05/07 01:55:24;;;;;;;0.80;0.80;;;10.00;99.90;;;;;;5053521;28;20186;-84
2022/05/07 01:57:50;;;;;;;0.70;0.70;;;9.90;99.90;;;;;;5052634;28;20240;-84
2022/05/07 02:00:15;;;;;;;0.60;0.60;;;9.90;99.90;;;;;;5053073;28;20543;-84
2022/05/07 02:02:41;;;;;;;3.63;1.40;;;9.90;99.90;;;;;;5052090;28;20232;-83
2022/05/07 02:05:07;;;;;;;0.70;0.70;;;9.90;99.90;;;;;;5035529;28;20193;-85
2022/05/07 02:07:33;;;;;;;0.70;0.70;;;9.90;99.90;;;;;;5053265;28;20238;-85
2022/05/07 02:09:59;;;;;;;0.50;0.50;;;9.90;99.90;;;;;;5035059;28;20197;-86
2022/05/07 02:12:24;;;;;;;1.08;1.00;;;9.90;99.90;;;;;;5046098;28;20197;-84
2022/05/07 02:14:50;;;;;;;0.88;0.75;;;9.90;99.90;;;;;;5053297;28;20217;-85
2022/05/07 02:17:15;;;;;;;0.60;0.60;;;9.90;99.90;;;;;;5051829;28;20202;-84
2022/05/07 02:19:41;;;;;;;0.68;0.63;;;9.90;99.90;;;;;;5035405;28;20262;-85
2022/05/07 02:22:07;;;;;;;0.60;0.60;;;9.90;99.90;;;;;;5035505;28;20193;-85
2022/05/07 02:24:32;;;;;;;0.80;0.80;;;9.90;99.90;;;;;;5051937;28;20247;-85
2022/05/07 02:26:59;;;;;;;0.60;0.60;;;9.90;99.90;;;;;;5053121;28;20657;-85
2022/05/07 02:29:24;;;;;;;1.40;1.30;;;9.90;99.90;;;;;;5051812;28;20247;-84
2022/05/07 02:32:06;;;;;;;0.70;0.70;;;9.90;99.90;;;;;;5035744;28;20605;-85
2022/05/07 02:34:32;;;;;;;0.60;0.60;;;9.90;99.90;;;;;;5051867;28;20201;-84
2022/05/07 02:36:59;;;;;;;0.60;0.60;;;9.90;99.90;;;;;;5035733;28;20288;-86
2022/05/07 02:39:25;;;;;;;0.70;0.70;;;9.90;99.90;;;;;;5035619;28;20204;-85
2022/05/07 02:44:36;;;;;;;0.95;0.95;;;9.90;99.90;;;;;;5052940;28;20246;-84
2022/05/07 02:47:01;;;;;;;2.05;1.73;;;9.90;99.90;;;;;;5053094;28;20201;-84
2022/05/07 02:49:27;;;;;;;0.60;0.60;;;9.90;99.90;;;;;;5052740;28;20281;-83
2022/05/07 02:51:53;;;;;;;0.60;0.60;;;9.90;99.90;;;;;;5052330;28;20547;-85
2022/05/07 02:54:19;;;;;;;0.77;0.77;;;9.90;99.90;;;;;;5031468;28;20325;-84
2022/05/07 02:56:44;;;;;;;0.63;0.63;;;9.90;99.90;;;;;;5015607;28;20328;-84
2022/05/07 02:59:10;;;;;;;0.70;0.70;;;9.90;99.90;;;;;;5015968;28;20198;-84
2022/05/07 03:01:36;;;;;;;0.60;0.60;;;9.90;99.90;;;;;;5031465;28;20202;-84
2022/05/07 03:04:01;;;;;;;0.60;0.60;;;9.90;99.90;;;;;;5034841;28;20202;-84
2022/05/07 03:06:27;;;;;;;0.70;0.70;;;9.90;99.90;;;;;;5035029;28;20562;-83
2022/05/07 03:08:52;;;;;;;0.68;0.68;;;9.90;99.90;;;;;;5051473;28;20220;-85
2022/05/07 03:11:18;;;;;;;0.60;0.60;;;9.90;99.90;;;;;;5051517;28;20194;-84
2022/05/07 03:13:44;;;;;;;0.70;0.70;;;10.00;99.90;;;;;;5052704;28;20229;-84
2022/05/07 03:16:10;;;;;;;0.75;0.75;;;9.90;99.90;;;;;;5053448;28;20201;-84
2022/05/07 03:18:35;;;;;;;0.68;0.68;;;10.00;99.90;;;;;;5034560;28;20208;-84
2022/05/07 03:21:02;;;;;;;0.52;0.52;;;10.00;99.90;;;;;;5035024;28;20205;-84
2022/05/07 09:37:16;;;;;;;0.52;0.52;;;12.60;99.90;;;;;;5090123;28;20697;-68
2022/05/07 09:39:50;;;;;;;0.50;0.50;;;12.70;99.90;;;;;;5090186;28;20184;-68
2022/05/07 09:42:19;;;;;;;0.50;0.50;;;13.10;99.90;;;;;;5090054;28;20180;-69
2022/05/07 09:44:45;;;;;;;0.43;0.43;;;13.50;99.90;;;;;;5090052;28;20221;-68
2022/05/07 09:47:12;;;;;;;0.70;0.65;;;13.30;99.90;;;;;;5090065;28;20192;-68
2022/05/07 09:52:28;;;;;;;0.50;0.50;;;14.00;99.90;;;;;;5090126;28;20204;-68
2022/05/07 09:57:39;;;;;;;0.40;0.40;;;14.90;99.90;;;;;;5090095;28;20776;-69
2022/05/07 10:00:07;;;;;;;0.70;0.70;;;15.00;99.90;;;;;;5089855;28;20283;-69
2022/05/07 10:02:58;;;;;;;0.40;0.40;;;14.50;99.90;;;;;;5089643;28;20195;-68
2022/05/07 10:05:48;;;;;;;0.50;0.50;;;14.10;99.90;;;;;;5089687;28;20184;-68
2022/05/07 10:08:26;;;;;;;0.40;0.40;;;14.60;99.90;;;;;;5087962;28;20200;-69
2022/05/07 10:10:53;;;;;;;0.60;0.60;;;15.00;99.90;;;;;;5088120;28;20211;-69
2022/05/07 10:13:19;;;;;;;0.60;0.60;;;14.80;99.90;;;;;;5089566;28;20682;-69
2022/05/07 10:15:45;;;;;;;0.57;0.55;;;15.00;99.90;;;;;;5089670;28;20188;-70
2022/05/07 10:18:15;;;;;;;0.40;0.40;;;15.30;99.90;;;;;;5089425;28;20195;-69
2022/05/07 10:20:43;;;;;;;0.50;0.50;;;15.50;99.90;;;;;;5089091;28;20281;-68
2022/05/07 10:23:11;;;;;;;0.50;0.50;;;15.70;99.90;;;;;;5069006;28;20246;-68
2022/05/07 10:25:37;;;;;;;0.40;0.40;;;15.70;99.90;;;;;;5071469;28;20712;-68
2022/05/07 10:28:09;;;;;;;0.40;0.40;;;15.60;97.70;;;;;;5089046;28;20297;-70
2022/05/07 10:31:02;;;;;;;1.42;0.82;;;16.00;98.70;;;;;;5088838;28;20228;-70
2022/05/07 10:33:40;;;;;;;0.40;0.40;;;16.80;98.40;;;;;;5089229;28;20244;-70
2022/05/07 10:36:10;;;;;;;0.35;0.35;;;16.50;96.40;;;;;;5089197;28;20237;-71
2022/05/07 10:38:37;;;;;;;0.30;0.30;;;16.90;95.10;;;;;;5088780;28;20219;-70
2022/05/07 10:41:18;;;;;;;0.30;0.30;;;17.10;95.10;;;;;;5084612;28;20215;-69
2022/05/07 10:43:59;;;;;;;0.30;0.30;;;17.00;94.90;;;;;;5075360;28;20207;-70
2022/05/07 10:46:25;;;;;;;0.30;0.30;;;17.20;95.30;;;;;;5075323;28;20192;-71
2022/05/07 10:49:01;;;;;;;0.30;0.30;;;17.20;94.40;;;;;;5075334;28;20203;-71
2022/05/07 10:51:35;;;;;;;0.30;0.30;;;17.30;92.80;;;;;;5075150;28;20196;-71
2022/05/07 10:54:03;;;;;;;0.40;0.40;;;17.50;94.40;;;;;;5075287;28;20666;-72
2022/05/07 10:56:32;;;;;;;0.43;0.43;;;17.20;93.90;;;;;;5074924;28;20193;-76
2022/05/07 10:58:58;;;;;;;0.30;0.30;;;17.10;92.80;;;;;;5075202;28;20185;-71
2022/05/07 11:01:26;;;;;;;0.30;0.30;;;16.90;93.40;;;;;;5074943;28;20185;-71
2022/05/07 11:04:05;;;;;;;0.30;0.30;;;16.30;94.70;;;;;;5075159;28;20185;-70
2022/05/07 11:06:45;;;;;;;0.32;0.32;;;16.20;92.90;;;;;;5074638;28;20667;-71
2022/05/07 11:09:22;;;;;;;0.85;0.82;;;15.90;94.80;;;;;;5074900;28;20197;-68
2022/05/07 11:11:51;;;;;;;0.77;0.77;;;16.00;94.20;;;;;;5074953;28;20188;-68
2022/05/07 11:14:30;;;;;;;0.68;0.68;;;16.80;94.60;;;;;;5075006;28;20197;-69
2022/05/07 11:16:57;;;;;;;0.30;0.30;;;17.80;92.80;;;;;;5073249;28;20556;-68
2022/05/07 11:19:31;;;;;;;0.30;0.30;;;18.80;90.10;;;;;;5073224;28;20262;-68
2022/05/07 11:21:59;;;;;;;0.20;0.20;;;19.60;91.70;;;;;;5066734;28;20572;-68
2022/05/07 11:24:26;;;;;;;0.20;0.20;;;19.70;80.30;;;;;;5074413;28;20272;-69
2022/05/07 11:26:53;;;;;;;0.28;0.28;;;19.70;83.20;;;;;;5074390;28;20652;-68
2022/05/07 11:29:20;;;;;;;7.03;0.50;;;19.40;87.40;;;;;;5074163;28;20232;-69
2022/05/07 11:31:57;;;;;;;0.20;0.20;;;18.60;79.40;;;;;;5074516;28;20193;-66
2022/05/07 11:34:31;;;;;;;0.40;0.40;;;18.20;82.50;;;;;;5074350;28;20189;-69
2022/05/07 11:37:26;;;;;;;0.22;0.22;;;17.90;85.60;;;;;;5073376;28;20197;-66
2022/05/07 11:39:56;;;;;;;0.45;0.45;;;18.00;86.60;;;;;;5074796;28;20235;-67
2022/05/07 11:42:28;;;;;;;0.20;0.20;;;18.30;85.30;;;;;;5072774;28;20228;-66
2022/05/07 11:48:03;;;;;;;0.20;0.20;;;19.80;82.70;;;;;;5074302;28;20253;-65
2022/05/07 11:50:41;;;;;;;0.30;0.30;;;19.50;85.80;;;;;;5073942;28;20205;-68
2022/05/07 11:53:12;;;;;;;0.28;0.28;;;19.60;75.80;;;;;;5073203;28;20237;-68
2022/05/07 11:55:38;;;;;;;0.25;0.25;;;19.90;88.00;;;;;;5074177;28;20191;-68
2022/05/07 11:58:18;;;;;;;0.20;0.20;;;19.80;76.40;;;;;;5074245;28;20193;-66
2022/05/07 12:00:46;;;;;;;0.20;0.20;;;19.90;72.60;;;;;;5074259;28;20207;-65
2022/05/07 12:03:15;;;;;;;0.30;0.30;;;19.80;70.20;;;;;;5072909;28;20227;-65
2022/05/07 12:05:45;;;;;;;0.20;0.20;;;19.90;77.80;;;;;;5073945;28;20208;-65
2022/05/07 12:08:22;;;;;;;0.20;0.20;;;20.10;70.90;;;;;;5073711;28;20255;-65
2022/05/07 12:10:53;;;;;;;0.30;0.30;;;20.20;69.80;;;;;;5073759;28;20208;-65
2022/05/07 12:13:24;;;;;;;0.82;0.80;;;20.70;67.90;;;;;;5072559;28;20215;-65
2022/05/07 12:18:36;;;;;;;0.30;0.30;;;19.60;68.80;;;;;;5073533;28;20223;-68
2022/05/07 12:21:02;;;;;;;0.30;0.30;;;19.50;66.90;;;;;;5069773;28;20215;-67
2022/05/07 12:31:40;;;;;;;0.20;0.20;;;19.00;79.00;;;;;;5053477;28;20741;-67
2022/05/07 12:34:06;;;;;;;0.20;0.20;;;19.90;76.40;;;;;;5052332;28;20221;-68
2022/05/07 12:36:32;;;;;;;0.30;0.30;;;20.30;68.50;;;;;;5052254;28;20193;-68
2022/05/07 12:38:59;;;;;;;0.20;0.20;;;20.00;66.60;;;;;;5053983;28;20217;-68
2022/05/07 12:41:29;;;;;;;0.20;0.20;;;19.80;67.00;;;;;;5053348;28;20221;-67
2022/05/07 12:43:56;;;;;;;0.30;0.30;;;19.20;69.00;;;;;;5053332;28;20264;-67
2022/05/07 12:46:24;;;;;;;0.30;0.30;;;18.50;67.40;;;;;;5053271;28;20273;-68
2022/05/07 12:48:50;;;;;;;0.20;0.20;;;18.40;72.10;;;;;;5052153;28;20228;-68
2022/05/07 12:51:16;;;;;;;0.30;0.30;;;19.00;74.80;;;;;;5053425;28;20567;-66
2022/05/07 12:53:42;;;;;;;0.30;0.30;;;19.50;69.90;;;;;;5053367;28;20205;-66
2022/05/07 12:56:07;;;;;;;0.40;0.40;;;19.90;65.30;;;;;;5053400;28;20276;-65
2022/05/07 12:58:34;;;;;;;0.20;0.20;;;19.70;74.30;;;;;;5066118;28;20193;-67
2022/05/07 13:01:00;;;;;;;0.85;0.50;;;19.70;71.00;;;;;;5073461;28;20394;-65
2022/05/07 13:03:26;;;;;;;0.30;0.30;;;19.70;71.80;;;;;;5071798;28;20200;-64
2022/05/07 13:05:52;;;;;;;0.20;0.20;;;19.20;66.90;;;;;;5073149;28;20197;-65
2022/05/07 13:08:18;;;;;;;0.20;0.20;;;19.00;67.70;;;;;;5071829;28;20219;-65
2022/05/07 13:10:44;;;;;;;0.30;0.30;;;19.20;70.40;;;;;;5073091;28;20213;-65
2022/05/07 13:13:10;;;;;;;0.30;0.30;;;19.70;67.10;;;;;;5073257;28;20199;-65
2022/05/07 13:15:36;;;;;;;0.20;0.20;;;19.80;66.10;;;;;;5072762;28;20223;-66
2022/05/07 13:18:01;;;;;;;0.20;0.20;;;19.70;63.90;;;;;;5073175;28;20188;-66
2022/05/07 13:20:28;;;;;;;0.20;0.20;;;19.60;64.00;;;;;;5072767;28;20201;-66
2022/05/07 13:22:54;;;;;;;0.20;0.20;;;19.50;68.00;;;;;;5072656;28;20208;-66
2022/05/07 13:25:22;;;;;;;0.20;0.20;;;19.30;68.10;;;;;;5072884;28;20189;-69
2022/05/07 13:27:49;;;;;;;0.20;0.20;;;19.10;64.50;;;;;;5073045;28;20538;-69
2022/05/07 13:30:15;;;;;;;0.28;0.28;;;18.90;63.80;;;;;;5072972;28;20233;-68
2022/05/07 13:32:41;;;;;;;0.30;0.30;;;18.50;66.50;;;;;;5073047;28;20275;-69
2022/05/07 13:35:09;;;;;;;0.20;0.20;;;18.40;64.80;;;;;;5073268;28;20338;-68
2022/05/07 13:37:35;;;;;;;0.40;0.40;;;18.70;66.00;;;;;;5058001;28;20571;-68
2022/05/07 13:40:01;;;;;;;0.30;0.30;;;19.20;62.90;;;;;;5053177;28;20575;-68
2022/05/07 13:42:26;;;;;;;0.30;0.30;;;19.20;61.30;;;;;;5052894;28;20204;-68
2022/05/07 13:44:52;;;;;;;0.30;0.30;;;18.90;60.80;;;;;;5053054;28;20204;-68
2022/05/07 13:47:20;;;;;;;0.30;0.30;;;18.50;61.90;;;;;;5053090;28;20215;-69
2022/05/07 13:49:45;;;;;;;0.30;0.30;;;18.30;62.30;;;;;;5052894;28;20201;-67
2022/05/07 13:52:12;;;;;;;0.30;0.30;;;18.30;62.30;;;;;;5085211;28;20201;-65
2022/05/07 13:54:38;;;;;;;0.30;0.30;;;18.10;63.60;;;;;;5098219;28;20246;-66
2022/05/07 13:57:04;;;;;;;0.30;0.30;;;17.90;62.40;;;;;;5072440;28;20189;-67
2022/05/07 13:59:32;;;;;;;0.20;0.20;;;17.50;64.30;;;;;;5072496;28;20197;-67
2022/05/07 14:01:58;;;;;;;0.20;0.20;;;17.60;64.00;;;;;;5072735;28;20185;-65
2022/05/07 14:04:26;;;;;;;43.28;0.85;;;18.00;63.50;;;;;;5072010;28;20193;-65
2022/05/07 14:06:53;;;;;;;0.30;0.30;;;18.60;66.10;;;;;;5072486;28;20683;-65
2022/05/07 14:09:19;;;;;;;0.30;0.30;;;19.20;60.60;;;;;;5072434;28;20189;-64
2022/05/07 14:11:45;;;;;;;0.28;0.28;;;19.20;63.70;;;;;;5072433;28;20282;-66
2022/05/07 14:14:11;;;;;;;0.20;0.20;;;18.60;58.40;;;;;;5072498;28;20250;-65
2022/05/07 14:16:36;;;;;;;7.97;0.40;;;18.30;59.90;;;;;;5073433;28;20586;-66
2022/05/07 14:19:02;;;;;;;0.30;0.30;;;17.90;59.80;;;;;;5076346;28;20205;-65
2022/05/07 14:21:29;;;;;;;0.30;0.30;;;17.50;63.30;;;;;;5069979;28;20198;-66
2022/05/07 14:23:55;;;;;;;0.65;0.65;;;17.40;62.40;;;;;;5056382;28;20189;-66
2022/05/07 14:26:20;;;;;;;0.82;0.60;;;17.40;64.60;;;;;;5054661;28;20193;-67
2022/05/07 14:28:46;;;;;;;0.30;0.30;;;17.60;61.00;;;;;;5055963;28;20194;-67
2022/05/07 14:31:12;;;;;;;0.40;0.40;;;17.70;60.70;;;;;;5055763;28;20230;-65
2022/05/07 14:33:38;;;;;;;0.55;0.45;;;17.90;61.50;;;;;;5055927;28;20219;-65
2022/05/07 14:36:05;;;;;;;0.40;0.40;;;18.30;66.60;;;;;;5055269;28;20786;-66
2022/05/07 14:38:30;;;;;;;0.30;0.30;;;18.60;59.50;;;;;;5071152;28;20683;-65
2022/05/07 14:40:56;;;;;;;0.22;0.22;;;18.50;62.60;;;;;;5056186;28;20197;-66
2022/05/07 14:43:23;;;;;;;0.40;0.40;;;18.70;64.00;;;;;;5055447;28;20193;-67
2022/05/07 14:45:49;;;;;;;0.40;0.40;;;18.80;57.60;;;;;;5055452;28;20272;-68
2022/05/07 14:48:15;;;;;;;0.30;0.30;;;18.50;59.10;;;;;;5054543;28;20280;-65
2022/05/07 14:50:42;;;;;;;0.32;0.32;;;18.40;59.20;;;;;;5073680;28;20726;-66
2022/05/07 14:53:07;;;;;;;0.30;0.30;;;18.50;58.50;;;;;;5075690;28;20233;-66
2022/05/07 14:55:33;;;;;;;0.30;0.30;;;18.50;66.40;;;;;;5075515;28;20220;-66
2022/05/07 14:58:02;;;;;;;1.30;0.40;;;18.60;57.60;;;;;;5074294;28;20189;-66
2022/05/07 15:00:28;;;;;;;0.20;0.20;;;18.30;58.80;;;;;;5075404;28;20192;-66
2022/05/07 15:02:54;;;;;;;0.40;0.40;;;18.50;59.10;;;;;;5075674;28;20266;-68
2022/05/07 15:05:19;;;;;;;0.35;0.35;;;19.00;59.90;;;;;;5075445;28;20200;-68
2022/05/07 15:07:45;;;;;;;0.30;0.30;;;19.20;56.60;;;;;;5075408;28;20208;-65
2022/05/07 15:12:56;;;;;;;0.30;0.30;;;18.40;64.50;;;;;;5075718;28;20254;-66
2022/05/07 15:15:22;;;;;;;0.28;0.28;;;18.30;57.70;;;;;;5074605;28;20651;-65
2022/05/07 15:17:48;;;;;;;0.30;0.30;;;17.90;59.60;;;;;;5073738;28;20647;-65
2022/05/07 15:20:15;;;;;;;9.18;0.77;;;17.40;60.70;;;;;;5075299;28;20276;-66
2022/05/07 15:22:45;;;;;;;0.20;0.20;;;17.10;60.90;;;;;;5058972;28;20671;-65
2022/05/07 15:25:18;;;;;;;0.30;0.30;;;17.20;62.00;;;;;;5053898;28;20204;-65
2022/05/07 15:27:48;;;;;;;0.30;0.30;;;17.20;58.60;;;;;;5054757;28;20220;-66
2022/05/07 15:30:16;;;;;;;0.30;0.30;;;17.00;59.20;;;;;;5054774;28;20624;-65
2022/05/07 15:38:11;;;;;;;0.45;0.45;;;16.80;64.70;;;;;;5055002;28;20212;-65
2022/05/07 15:40:37;;;;;;;0.30;0.30;;;16.90;60.60;;;;;;5053395;28;20223;-65
2022/05/07 15:43:02;;;;;;;0.30;0.30;;;16.90;59.20;;;;;;5054480;28;20193;-66
2022/05/07 15:45:31;;;;;;;0.40;0.40;;;17.10;59.30;;;;;;5054367;28;20197;-66
2022/05/07 15:47:56;;;;;;;0.30;0.30;;;17.10;60.80;;;;;;5074094;28;20196;-65
2022/05/07 15:50:23;;;;;;;0.40;0.40;;;17.10;66.00;;;;;;5074531;28;20208;-66
2022/05/07 15:52:49;;;;;;;0.30;0.30;;;17.00;59.70;;;;;;5074903;28;20657;-65
2022/05/07 15:55:15;;;;;;;0.38;0.38;;;16.80;60.20;;;;;;5073432;28;20291;-66
2022/05/07 15:57:40;;;;;;;0.38;0.38;;;16.50;59.80;;;;;;5074496;28;20550;-65
2022/05/07 16:00:07;;;;;;;0.30;0.30;;;16.40;62.30;;;;;;5074636;28;20193;-67
2022/05/07 16:02:32;;;;;;;0.68;0.68;;;16.50;58.40;;;;;;5074200;28;20681;-66
2022/05/07 16:04:58;;;;;;;0.30;0.30;;;16.50;59.40;;;;;;5073169;28;20286;-66
2022/05/07 16:07:23;;;;;;;0.30;0.30;;;16.60;60.30;;;;;;5074278;28;20697;-66
2022/05/07 16:09:49;;;;;;;0.30;0.30;;;16.70;58.40;;;;;;5074646;28;20212;-65
2022/05/07 16:12:15;;;;;;;0.30;0.30;;;16.30;57.90;;;;;;5074012;28;20206;-65
2022/05/07 16:14:41;;;;;;;0.50;0.50;;;16.20;59.40;;;;;;5070677;28;20284;-67
2022/05/07 16:17:06;;;;;;;0.30;0.30;;;16.00;59.60;;;;;;5072502;28;20205;-66
2022/05/07 16:19:32;;;;;;;0.40;0.40;;;16.10;60.90;;;;;;5054036;28;20204;-66
2022/05/07 16:21:58;;;;;;;0.40;0.40;;;16.10;66.10;;;;;;5059764;28;20200;-67
2022/05/07 16:27:08;;;;;;;0.30;0.30;;;16.30;59.30;;;;;;5073556;28;20207;-67
2022/05/07 16:29:34;;;;;;;0.30;0.30;;;16.20;64.00;;;;;;5073532;28;20221;-66
2022/05/07 16:32:00;;;;;;;0.30;0.30;;;16.50;63.40;;;;;;5073994;28;20562;-65
2022/05/07 16:34:25;;;;;;;0.30;0.30;;;16.60;61.60;;;;;;5073767;28;20268;-65
2022/05/07 16:36:51;;;;;;;0.50;0.50;;;16.40;60.00;;;;;;5073719;28;20663;-67
2022/05/07 16:39:17;;;;;;;0.40;0.40;;;16.00;59.50;;;;;;5073341;28;20231;-66
2022/05/07 16:41:43;;;;;;;0.40;0.40;;;15.60;59.60;;;;;;5073643;28;20197;-68
2022/05/07 16:44:08;;;;;;;0.30;0.30;;;15.20;59.40;;;;;;5072472;28;20193;-66
2022/05/07 16:46:34;;;;;;;0.30;0.30;;;15.00;61.50;;;;;;5073482;28;20254;-65
2022/05/07 16:49:00;;;;;;;0.40;0.40;;;14.80;62.50;;;;;;5072087;28;20562;-66
2022/05/07 16:51:25;;;;;;;0.40;0.40;;;14.60;65.40;;;;;;5073274;28;20258;-66
2022/05/07 16:53:51;;;;;;;0.50;0.50;;;14.60;63.60;;;;;;5073527;28;20185;-68
2022/05/07 16:56:17;;;;;;;0.40;0.40;;;14.60;69.10;;;;;;5073532;28;20608;-67
2022/05/07 16:58:42;;;;;;;0.35;0.35;;;14.50;66.20;;;;;;5072074;28;20601;-67
2022/05/07 17:01:08;;;;;;;0.40;0.40;;;14.70;65.80;;;;;;5069175;28;20220;-67
2022/05/07 17:03:35;;;;;;;2.83;0.73;;;14.70;72.80;;;;;;5052986;28;20565;-66
2022/05/07 17:06:01;;;;;;;0.30;0.30;;;14.70;66.80;;;;;;5052892;28;20538;-66
2022/05/07 17:08:27;;;;;;;0.40;0.40;;;14.60;72.50;;;;;;5051918;28;20293;-66
2022/05/07 17:10:54;;;;;;;0.35;0.35;;;14.50;67.70;;;;;;5053235;28;20208;-67
2022/05/07 17:13:21;;;;;;;0.40;0.40;;;14.40;71.70;;;;;;5053102;28;20651;-66
2022/05/07 17:15:47;;;;;;;0.40;0.40;;;14.30;63.50;;;;;;5053282;28;20186;-67
2022/05/07 17:18:12;;;;;;;0.40;0.40;;;14.20;63.70;;;;;;5063003;28;20658;-67
2022/05/07 17:20:40;;;;;;;18.50;10.13;;;14.10;66.80;;;;;;5073127;28;20206;-74
2022/05/07 17:23:07;;;;;;;4.15;2.70;;;14.10;65.10;;;;;;5052388;28;20312;-66
2022/05/07 17:25:33;;;;;;;1.17;1.08;;;14.00;68.70;;;;;;5053160;28;20273;-68
2022/05/07 17:28:00;;;;;;;0.50;0.50;;;14.00;67.60;;;;;;5053068;28;20221;-66
2022/05/07 17:30:25;;;;;;;0.40;0.40;;;13.90;68.30;;;;;;5052764;28;20228;-66
2022/05/07 17:32:52;;;;;;;0.40;0.40;;;13.70;70.40;;;;;;5051836;28;20296;-66
2022/05/07 17:35:18;;;;;;;0.45;0.45;;;13.70;76.00;;;;;;5051563;28;20201;-67
2022/05/07 17:37:43;;;;;;;0.60;0.60;;;13.60;74.40;;;;;;5052990;28;20194;-66
2022/05/07 17:40:10;;;;;;;0.60;0.60;;;13.50;82.40;;;;;;5053210;28;20177;-66
2022/05/07 17:42:35;;;;;;;0.40;0.40;;;13.50;83.10;;;;;;5052822;28;20264;-66
2022/05/07 17:45:02;;;;;;;0.47;0.47;;;13.50;83.30;;;;;;5051659;28;20636;-66
2022/05/07 17:47:27;;;;;;;0.40;0.40;;;13.50;85.80;;;;;;5052240;28;20243;-66
2022/05/07 17:49:53;;;;;;;0.47;0.47;;;13.40;87.40;;;;;;5052843;28;20209;-66
2022/05/07 17:52:19;;;;;;;0.40;0.40;;;13.10;87.80;;;;;;5055416;28;20201;-66
2022/05/07 17:54:45;;;;;;;0.40;0.40;;;12.90;90.40;;;;;;5056948;28;20182;-66
2022/05/07 17:57:11;;;;;;;0.40;0.40;;;12.70;91.10;;;;;;5056873;28;20197;-66
2022/05/07 17:59:40;;;;;;;0.50;0.50;;;12.60;84.20;;;;;;5055320;28;20248;-65
2022/05/07 18:02:06;;;;;;;0.52;0.52;;;12.50;91.10;;;;;;5055361;28;20201;-66
2022/05/07 18:04:32;;;;;;;0.40;0.40;;;12.40;92.00;;;;;;5056591;28;20204;-67
2022/05/07 18:06:58;;;;;;;0.40;0.40;;;12.40;92.70;;;;;;5056749;28;20194;-67
2022/05/07 18:09:24;;;;;;;0.50;0.50;;;12.30;92.80;;;;;;5056483;28;20563;-67
2022/05/07 18:11:52;;;;;;;0.60;0.60;;;12.40;93.00;;;;;;5056733;28;20202;-66
2022/05/07 18:14:18;;;;;;;0.50;0.50;;;12.40;95.70;;;;;;5056433;28;20556;-67
2022/05/07 18:16:44;;;;;;;0.50;0.50;;;12.40;95.40;;;;;;5056763;28;20251;-66
2022/05/07 18:19:11;;;;;;;0.50;0.50;;;12.40;96.20;;;;;;5074153;28;20220;-66
2022/05/07 18:21:39;;;;;;;0.60;0.60;;;12.30;95.70;;;;;;5069188;28;20201;-66
2022/05/07 18:24:09;;;;;;;0.40;0.40;;;12.20;96.60;;;;;;5056504;28;20620;-66
2022/05/07 18:26:36;;;;;;;0.70;0.70;;;12.00;95.50;;;;;;5056474;28;20209;-67
2022/05/07 18:29:04;;;;;;;0.50;0.50;;;12.00;96.70;;;;;;5055646;28;20562;-66
2022/05/07 18:31:31;;;;;;;0.60;0.60;;;11.90;96.70;;;;;;5055560;28;20687;-67
2022/05/07 18:33:57;;;;;;;0.50;0.50;;;11.80;97.80;;;;;;5056228;28;20193;-65
2022/05/07 18:44:56;;;;;;;0.93;0.93;;;11.40;96.40;;;;;;5053852;28;20293;-65
2022/05/07 18:47:21;;;;;;;0.50;0.50;;;11.30;97.30;;;;;;5055492;28;20209;-66
2022/05/07 18:49:47;;;;;;;0.50;0.50;;;11.20;94.40;;;;;;5055289;28;20573;-65
2022/05/07 18:52:13;;;;;;;0.50;0.50;;;11.20;96.20;;;;;;5055780;28;20197;-65
2022/05/07 18:54:39;;;;;;;0.50;0.50;;;11.10;98.40;;;;;;5055672;28;20201;-65
2022/05/07 18:59:49;;;;;;;0.40;0.40;;;10.90;98.90;;;;;;5055746;28;20200;-66
2022/05/07 19:02:15;;;;;;;0.50;0.50;;;10.70;96.80;;;;;;5055222;28;20194;-67
2022/05/07 19:04:41;;;;;;;0.50;0.50;;;10.60;94.50;;;;;;5087797;28;20228;-67
2022/05/07 19:07:07;;;;;;;0.60;0.60;;;10.50;93.90;;;;;;5055624;28;20229;-66
2022/05/07 19:09:35;;;;;;;0.57;0.57;;;10.30;93.70;;;;;;5055263;28;20202;-67
2022/05/07 19:12:01;;;;;;;0.50;0.50;;;10.10;96.90;;;;;;5054281;28;20194;-66
2022/05/07 19:14:27;;;;;;;0.57;0.57;;;9.90;98.20;;;;;;5065075;28;20204;-66
2022/05/07 19:16:53;;;;;;;0.50;0.50;;;9.60;98.30;;;;;;5074995;28;20195;-66
2022/05/07 19:19:20;;;;;;;0.60;0.60;;;9.40;98.10;;;;;;5055080;28;20193;-66
2022/05/07 19:21:51;;;;;;;0.60;0.60;;;9.20;98.90;;;;;;5055251;28;20316;-66
2022/05/07 19:24:17;;;;;;;0.55;0.55;;;9.00;98.80;;;;;;5055382;28;20182;-66
2022/05/07 19:26:43;;;;;;;0.60;0.60;;;8.80;99.90;;;;;;5055064;28;20221;-66
2022/05/07 19:29:09;;;;;;;0.60;0.60;;;8.50;99.90;;;;;;5055046;28;20193;-66
2022/05/07 19:31:35;;;;;;;0.50;0.50;;;8.30;99.90;;;;;;5054912;28;20297;-66
2022/05/07 19:34:01;;;;;;;0.50;0.50;;;8.20;99.90;;;;;;5055168;28;20612;-66
2022/05/07 19:36:26;;;;;;;0.63;0.63;;;8.00;99.90;;;;;;5054322;28;20672;-65
2022/05/07 19:38:52;;;;;;;0.60;0.60;;;7.80;99.90;;;;;;5054962;28;20186;-65
2022/05/07 19:41:18;;;;;;;0.75;0.75;;;7.60;99.90;;;;;;5054962;28;20193;-68
2022/05/07 19:43:44;;;;;;;0.60;0.60;;;7.60;99.90;;;;;;5054813;28;20205;-66
2022/05/07 19:46:10;;;;;;;0.70;0.70;;;7.40;99.90;;;;;;5055115;28;20193;-66
2022/05/07 19:48:36;;;;;;;0.60;0.60;;;7.40;99.90;;;;;;5086932;28;20225;-66
2022/05/07 19:51:02;;;;;;;0.70;0.70;;;7.40;99.90;;;;;;5087063;28;20224;-66
2022/05/07 19:53:27;;;;;;;0.70;0.70;;;7.30;99.90;;;;;;5054652;28;20201;-65